sensor_id;sensor_type;location;lat;lon;timestamp;temperature;humidity
4566;DHT22;2295;51.050;14.608;2022-10-16T00:00:57;13.80;99.90
4566;DHT22;2295;51.050;14.608;2022-10-16T00:03:27;13.90;99.90
4566;DHT22;2295;51.050;14.608;2022-10-16T00:05:58;14.00;99.90
4566;DHT22;2295;51.050;14.608;2022-10-16T00:08:26;14.00;99.90
4566;DHT22;2295;51.050;14.608;2022-10-16T00:10:58;14.00;99.90
4566;DHT22;2295;51.050;14.608;2022-10-16T00:13:26;14.00;99.90
4566;DHT22;2295;51.050;14.608;2022-10-16T00:15:54;14.00;99.90
4566;DHT22;2295;51.050;14.608;2022-10-16T00:18:23;14.00;99.90
4566;DHT22;2295;51.050;14.608;2022-10-16T00:20:52;13.90;99.90
4566;DHT22;2295;51.050;14.608;2022-10-16T00:23:20;13.90;99.90
4566;DHT22;2295;51.050;14.608;2022-10-16T00:25:54;13.90;99.90
4566;DHT22;2295;51.050;14.608;2022-10-16T00:28:22;13.90;99.90
4566;DHT22;2295;51.050;14.608;2022-10-16T00:30:50;13.80;99.90
4566;DHT22;2295;51.050;14.608;2022-10-16T00:33:19;13.80;99.90
4566;DHT22;2295;51.050;14.608;2022-10-16T00:35:47;13.80;99.90
4566;DHT22;2295;51.050;14.608;2022-10-16T00:38:17;13.70;99.90
4566;DHT22;2295;51.050;14.608;2022-10-16T00:40:45;13.70;99.90
4566;DHT22;2295;51.050;14.608;2022-10-16T00:43:13;13.60;99.90
4566;DHT22;2295;51.050;14.608;2022-10-16T00:45:41;13.60;99.90
4566;DHT22;2295;51.050;14.608;2022-10-16T00:48:10;13.60;99.90
4566;DHT22;2295;51.050;14.608;2022-10-16T00:50:40;13.60;99.90
4566;DHT22;2295;51.050;14.608;2022-10-16T00:53:10;13.50;99.90
4566;DHT22;2295;51.050;14.608;2022-10-16T00:55:40;13.50;99.90
4566;DHT22;2295;51.050;14.608;2022-10-16T00:58:09;13.50;99.90
4566;DHT22;2295;51.050;14.608;2022-10-16T01:00:37;13.50;99.90
4566;DHT22;2295;51.050;14.608;2022-10-16T01:05:49;13.40;99.90
4566;DHT22;2295;51.050;14.608;2022-10-16T01:08:21;13.40;99.90
4566;DHT22;2295;51.050;14.608;2022-10-16T01:10:57;13.40;99.90
4566;DHT22;2295;51.050;14.608;2022-10-16T01:13:26;13.40;99.90
4566;DHT22;2295;51.050;14.608;2022-10-16T01:15:56;13.40;99.90
4566;DHT22;2295;51.050;14.608;2022-10-16T01:18:28;13.30;99.90
4566;DHT22;2295;51.050;14.608;2022-10-16T01:20:58;13.30;99.90
4566;DHT22;2295;51.050;14.608;2022-10-16T01:23:27;13.30;99.90
4566;DHT22;2295;51.050;14.608;2022-10-16T01:28:47;13.30;99.90
4566;DHT22;2295;51.050;14.608;2022-10-16T01:31:18;13.30;99.90
4566;DHT22;2295;51.050;14.608;2022-10-16T01:33:47;13.30;99.90
4566;DHT22;2295;51.050;14.608;2022-10-16T01:36:18;13.40;99.90
4566;DHT22;2295;51.050;14.608;2022-10-16T01:38:49;13.40;99.90
4566;DHT22;2295;51.050;14.608;2022-10-16T01:41:20;13.40;99.90
4566;DHT22;2295;51.050;14.608;2022-10-16T01:43:52;13.30;99.90
4566;DHT22;2295;51.050;14.608;2022-10-16T01:46:21;13.30;99.90
4566;DHT22;2295;51.050;14.608;2022-10-16T01:48:50;13.30;99.90
4566;DHT22;2295;51.050;14.608;2022-10-16T01:51:19;13.30;99.90
4566;DHT22;2295;51.050;14.608;2022-10-16T01:53:48;13.30;99.90
4566;DHT22;2295;51.050;14.608;2022-10-16T01:56:17;13.30;99.90
4566;DHT22;2295;51.050;14.608;2022-10-16T01:58:47;13.20;99.90
4566;DHT22;2295;51.050;14.608;2022-10-16T02:01:18;13.20;99.90
4566;DHT22;2295;51.050;14.608;2022-10-16T02:03:48;13.20;99.90
4566;DHT22;2295;51.050;14.608;2022-10-16T02:06:17;13.10;99.90
4566;DHT22;2295;51.050;14.608;2022-10-16T02:08:46;13.10;99.90
4566;DHT22;2295;51.050;14.608;2022-10-16T02:11:14;13.10;99.90
4566;DHT22;2295;51.050;14.608;2022-10-16T02:13:43;13.10;99.90
4566;DHT22;2295;51.050;14.608;2022-10-16T02:16:12;13.00;99.90
4566;DHT22;2295;51.050;14.608;2022-10-16T02:18:42;13.00;99.90
4566;DHT22;2295;51.050;14.608;2022-10-16T02:21:13;13.00;99.90
4566;DHT22;2295;51.050;14.608;2022-10-16T02:23:44;13.00;99.90
4566;DHT22;2295;51.050;14.608;2022-10-16T02:26:15;12.90;99.90
4566;DHT22;2295;51.050;14.608;2022-10-16T02:28:46;13.00;99.90
4566;DHT22;2295;51.050;14.608;2022-10-16T02:31:22;13.00;99.90
4566;DHT22;2295;51.050;14.608;2022-10-16T02:33:54;13.10;99.90
4566;DHT22;2295;51.050;14.608;2022-10-16T02:36:22;13.20;99.90
4566;DHT22;2295;51.050;14.608;2022-10-16T02:38:50;13.30;99.90
4566;DHT22;2295;51.050;14.608;2022-10-16T02:41:20;13.30;99.90
4566;DHT22;2295;51.050;14.608;2022-10-16T02:43:48;13.30;99.90
4566;DHT22;2295;51.050;14.608;2022-10-16T02:46:16;13.20;99.90
4566;DHT22;2295;51.050;14.608;2022-10-16T02:48:44;13.20;99.90
4566;DHT22;2295;51.050;14.608;2022-10-16T02:51:14;13.30;99.90
4566;DHT22;2295;51.050;14.608;2022-10-16T02:53:42;13.30;99.90
4566;DHT22;2295;51.050;14.608;2022-10-16T02:56:10;13.30;99.90
4566;DHT22;2295;51.050;14.608;2022-10-16T02:58:38;13.30;99.90
4566;DHT22;2295;51.050;14.608;2022-10-16T03:01:06;13.30;99.90
4566;DHT22;2295;51.050;14.608;2022-10-16T03:03:34;13.40;99.90
4566;DHT22;2295;51.050;14.608;2022-10-16T03:06:02;13.40;99.90
4566;DHT22;2295;51.050;14.608;2022-10-16T03:08:32;13.50;99.90
4566;DHT22;2295;51.050;14.608;2022-10-16T03:11:00;13.60;99.90
4566;DHT22;2295;51.050;14.608;2022-10-16T03:13:28;13.60;99.90
4566;DHT22;2295;51.050;14.608;2022-10-16T03:15:56;13.60;99.90
4566;DHT22;2295;51.050;14.608;2022-10-16T03:18:24;13.60;99.90
4566;DHT22;2295;51.050;14.608;2022-10-16T03:20:52;13.70;99.90
4566;DHT22;2295;51.050;14.608;2022-10-16T03:23:20;13.70;99.90
4566;DHT22;2295;51.050;14.608;2022-10-16T03:25:49;13.80;99.90
4566;DHT22;2295;51.050;14.608;2022-10-16T03:28:17;13.70;99.90
4566;DHT22;2295;51.050;14.608;2022-10-16T03:30:45;13.80;99.90
4566;DHT22;2295;51.050;14.608;2022-10-16T03:33:13;13.80;99.90
4566;DHT22;2295;51.050;14.608;2022-10-16T03:35:41;13.70;99.90
4566;DHT22;2295;51.050;14.608;2022-10-16T03:38:09;13.70;99.90
4566;DHT22;2295;51.050;14.608;2022-10-16T03:40:37;13.70;99.90
4566;DHT22;2295;51.050;14.608;2022-10-16T03:43:07;13.70;99.90
4566;DHT22;2295;51.050;14.608;2022-10-16T03:45:35;13.70;99.90
4566;DHT22;2295;51.050;14.608;2022-10-16T03:48:03;13.70;99.90
4566;DHT22;2295;51.050;14.608;2022-10-16T03:50:31;13.70;99.90
4566;DHT22;2295;51.050;14.608;2022-10-16T03:52:59;13.70;99.90
4566;DHT22;2295;51.050;14.608;2022-10-16T03:55:27;13.70;99.90
4566;DHT22;2295;51.050;14.608;2022-10-16T03:57:55;13.70;99.90
4566;DHT22;2295;51.050;14.608;2022-10-16T04:00:24;13.70;99.90
4566;DHT22;2295;51.050;14.608;2022-10-16T04:02:52;13.70;99.90
4566;DHT22;2295;51.050;14.608;2022-10-16T04:05:20;13.70;99.90
4566;DHT22;2295;51.050;14.608;2022-10-16T04:07:48;13.70;99.90
4566;DHT22;2295;51.050;14.608;2022-10-16T04:10:16;13.70;99.90
4566;DHT22;2295;51.050;14.608;2022-10-16T04:12:44;13.70;99.90
4566;DHT22;2295;51.050;14.608;2022-10-16T04:15:12;13.70;99.90
4566;DHT22;2295;51.050;14.608;2022-10-16T04:17:42;13.80;99.90
4566;DHT22;2295;51.050;14.608;2022-10-16T04:20:10;13.80;99.90
4566;DHT22;2295;51.050;14.608;2022-10-16T04:22:38;13.90;99.90
4566;DHT22;2295;51.050;14.608;2022-10-16T04:25:06;13.90;99.90
4566;DHT22;2295;51.050;14.608;2022-10-16T04:27:34;13.90;99.90
4566;DHT22;2295;51.050;14.608;2022-10-16T04:30:05;14.00;99.90
4566;DHT22;2295;51.050;14.608;2022-10-16T04:32:33;14.00;99.90
4566;DHT22;2295;51.050;14.608;2022-10-16T04:35:03;14.00;99.90
4566;DHT22;2295;51.050;14.608;2022-10-16T04:37:31;14.00;99.90
4566;DHT22;2295;51.050;14.608;2022-10-16T04:39:59;14.00;99.90
4566;DHT22;2295;51.050;14.608;2022-10-16T04:42:27;14.00;99.90
4566;DHT22;2295;51.050;14.608;2022-10-16T04:44:55;13.90;99.90
4566;DHT22;2295;51.050;14.608;2022-10-16T04:47:23;13.90;99.90
4566;DHT22;2295;51.050;14.608;2022-10-16T04:49:52;13.80;99.90
4566;DHT22;2295;51.050;14.608;2022-10-16T04:52:21;13.80;99.90
4566;DHT22;2295;51.050;14.608;2022-10-16T04:54:51;13.70;99.90
4566;DHT22;2295;51.050;14.608;2022-10-16T04:57:20;13.70;99.90
4566;DHT22;2295;51.050;14.608;2022-10-16T04:59:48;13.80;99.90
4566;DHT22;2295;51.050;14.608;2022-10-16T05:02:16;13.70;99.90
4566;DHT22;2295;51.050;14.608;2022-10-16T05:04:44;13.70;99.90
4566;DHT22;2295;51.050;14.608;2022-10-16T05:07:12;13.60;99.90
4566;DHT22;2295;51.050;14.608;2022-10-16T05:09:42;13.60;99.90
4566;DHT22;2295;51.050;14.608;2022-10-16T05:12:10;13.70;99.90
4566;DHT22;2295;51.050;14.608;2022-10-16T05:14:38;13.60;99.90
4566;DHT22;2295;51.050;14.608;2022-10-16T05:17:06;13.60;99.90
4566;DHT22;2295;51.050;14.608;2022-10-16T05:19:34;13.60;99.90
4566;DHT22;2295;51.050;14.608;2022-10-16T05:22:02;13.60;99.90
4566;DHT22;2295;51.050;14.608;2022-10-16T05:24:30;13.50;99.90
4566;DHT22;2295;51.050;14.608;2022-10-16T05:27:00;13.50;99.90
4566;DHT22;2295;51.050;14.608;2022-10-16T05:29:28;13.60;99.90
4566;DHT22;2295;51.050;14.608;2022-10-16T05:31:56;13.50;99.90
4566;DHT22;2295;51.050;14.608;2022-10-16T05:34:24;13.50;99.90
4566;DHT22;2295;51.050;14.608;2022-10-16T05:36:52;13.50;99.90
4566;DHT22;2295;51.050;14.608;2022-10-16T05:39:20;13.50;99.90
4566;DHT22;2295;51.050;14.608;2022-10-16T05:41:49;13.50;99.90
4566;DHT22;2295;51.050;14.608;2022-10-16T05:44:18;13.60;99.90
4566;DHT22;2295;51.050;14.608;2022-10-16T05:46:47;13.50;99.90
4566;DHT22;2295;51.050;14.608;2022-10-16T05:49:15;13.50;99.90
4566;DHT22;2295;51.050;14.608;2022-10-16T05:51:43;13.50;99.90
4566;DHT22;2295;51.050;14.608;2022-10-16T05:54:11;13.50;99.90
4566;DHT22;2295;51.050;14.608;2022-10-16T05:56:39;13.40;99.90
4566;DHT22;2295;51.050;14.608;2022-10-16T05:59:07;13.50;99.90
4566;DHT22;2295;51.050;14.608;2022-10-16T06:01:36;13.40;99.90
4566;DHT22;2295;51.050;14.608;2022-10-16T06:04:04;13.50;99.90
4566;DHT22;2295;51.050;14.608;2022-10-16T06:06:32;13.50;99.90
4566;DHT22;2295;51.050;14.608;2022-10-16T06:09:03;13.50;99.90
4566;DHT22;2295;51.050;14.608;2022-10-16T06:11:31;13.60;99.90
4566;DHT22;2295;51.050;14.608;2022-10-16T06:14:00;13.60;99.90
4566;DHT22;2295;51.050;14.608;2022-10-16T06:16:29;13.60;99.90
4566;DHT22;2295;51.050;14.608;2022-10-16T06:18:58;13.60;99.90
4566;DHT22;2295;51.050;14.608;2022-10-16T06:21:27;13.70;99.90
4566;DHT22;2295;51.050;14.608;2022-10-16T06:23:56;13.70;99.90
4566;DHT22;2295;51.050;14.608;2022-10-16T06:26:27;13.70;99.90
4566;DHT22;2295;51.050;14.608;2022-10-16T06:28:56;13.70;99.90
4566;DHT22;2295;51.050;14.608;2022-10-16T06:31:24;13.80;99.90
4566;DHT22;2295;51.050;14.608;2022-10-16T06:33:54;13.80;99.90
4566;DHT22;2295;51.050;14.608;2022-10-16T06:36:24;13.80;99.90
4566;DHT22;2295;51.050;14.608;2022-10-16T06:38:52;13.80;99.90
4566;DHT22;2295;51.050;14.608;2022-10-16T06:41:21;13.80;99.90
4566;DHT22;2295;51.050;14.608;2022-10-16T06:43:49;13.80;99.90
4566;DHT22;2295;51.050;14.608;2022-10-16T06:46:20;13.90;99.90
4566;DHT22;2295;51.050;14.608;2022-10-16T06:48:48;13.90;99.90
4566;DHT22;2295;51.050;14.608;2022-10-16T06:51:16;13.90;99.90
4566;DHT22;2295;51.050;14.608;2022-10-16T06:53:46;14.00;99.90
4566;DHT22;2295;51.050;14.608;2022-10-16T06:56:32;14.10;99.90
4566;DHT22;2295;51.050;14.608;2022-10-16T06:59:00;14.20;99.90
4566;DHT22;2295;51.050;14.608;2022-10-16T07:01:31;14.40;99.90
4566;DHT22;2295;51.050;14.608;2022-10-16T07:04:00;14.60;99.90
4566;DHT22;2295;51.050;14.608;2022-10-16T07:06:31;14.80;99.90
4566;DHT22;2295;51.050;14.608;2022-10-16T07:09:02;15.00;99.90
4566;DHT22;2295;51.050;14.608;2022-10-16T07:11:30;15.20;99.90
4566;DHT22;2295;51.050;14.608;2022-10-16T07:13:58;15.30;99.90
4566;DHT22;2295;51.050;14.608;2022-10-16T07:16:27;15.30;99.90
4566;DHT22;2295;51.050;14.608;2022-10-16T07:18:56;15.30;99.90
4566;DHT22;2295;51.050;14.608;2022-10-16T07:21:27;15.20;99.90
4566;DHT22;2295;51.050;14.608;2022-10-16T07:24:03;15.30;99.90
4566;DHT22;2295;51.050;14.608;2022-10-16T07:26:33;15.40;99.90
4566;DHT22;2295;51.050;14.608;2022-10-16T07:29:02;15.60;99.90
4566;DHT22;2295;51.050;14.608;2022-10-16T07:31:30;16.10;99.90
4566;DHT22;2295;51.050;14.608;2022-10-16T07:33:59;16.80;99.90
4566;DHT22;2295;51.050;14.608;2022-10-16T07:36:27;17.20;99.90
4566;DHT22;2295;51.050;14.608;2022-10-16T07:38:55;17.40;99.90
4566;DHT22;2295;51.050;14.608;2022-10-16T07:41:28;17.40;99.90
4566;DHT22;2295;51.050;14.608;2022-10-16T07:43:57;17.20;99.90
4566;DHT22;2295;51.050;14.608;2022-10-16T07:46:27;17.20;99.90
4566;DHT22;2295;51.050;14.608;2022-10-16T07:48:58;17.60;99.90
4566;DHT22;2295;51.050;14.608;2022-10-16T07:51:26;17.70;99.90
4566;DHT22;2295;51.050;14.608;2022-10-16T07:53:54;17.60;99.90
4566;DHT22;2295;51.050;14.608;2022-10-16T07:56:23;17.50;99.90
4566;DHT22;2295;51.050;14.608;2022-10-16T07:58:52;17.40;99.90
4566;DHT22;2295;51.050;14.608;2022-10-16T08:01:20;17.80;99.90
4566;DHT22;2295;51.050;14.608;2022-10-16T08:03:50;19.00;99.90
4566;DHT22;2295;51.050;14.608;2022-10-16T08:06:19;20.40;99.90
4566;DHT22;2295;51.050;14.608;2022-10-16T08:08:53;20.70;99.90
4566;DHT22;2295;51.050;14.608;2022-10-16T08:11:21;20.10;99.90
4566;DHT22;2295;51.050;14.608;2022-10-16T08:13:50;19.50;99.90
4566;DHT22;2295;51.050;14.608;2022-10-16T08:16:19;19.00;99.90
4566;DHT22;2295;51.050;14.608;2022-10-16T08:18:47;18.80;99.90
4566;DHT22;2295;51.050;14.608;2022-10-16T08:21:18;18.70;99.90
4566;DHT22;2295;51.050;14.608;2022-10-16T08:23:47;18.50;99.90
4566;DHT22;2295;51.050;14.608;2022-10-16T08:26:24;18.40;99.90
4566;DHT22;2295;51.050;14.608;2022-10-16T08:28:55;18.40;99.90
4566;DHT22;2295;51.050;14.608;2022-10-16T08:31:24;18.40;99.90
4566;DHT22;2295;51.050;14.608;2022-10-16T08:33:54;18.40;99.90
4566;DHT22;2295;51.050;14.608;2022-10-16T08:36:25;18.40;99.90
4566;DHT22;2295;51.050;14.608;2022-10-16T08:38:53;18.50;99.90
4566;DHT22;2295;51.050;14.608;2022-10-16T08:41:23;18.50;99.90
4566;DHT22;2295;51.050;14.608;2022-10-16T08:44:04;18.40;99.90
4566;DHT22;2295;51.050;14.608;2022-10-16T08:46:39;18.20;99.90
4566;DHT22;2295;51.050;14.608;2022-10-16T08:49:16;18.20;99.90
4566;DHT22;2295;51.050;14.608;2022-10-16T08:51:44;18.40;99.90
4566;DHT22;2295;51.050;14.608;2022-10-16T08:54:16;19.10;99.90
4566;DHT22;2295;51.050;14.608;2022-10-16T08:56:47;19.60;99.90
4566;DHT22;2295;51.050;14.608;2022-10-16T08:59:16;19.80;99.90
4566;DHT22;2295;51.050;14.608;2022-10-16T09:01:46;19.70;99.90
4566;DHT22;2295;51.050;14.608;2022-10-16T09:07:08;19.00;99.90
4566;DHT22;2295;51.050;14.608;2022-10-16T09:09:45;18.70;99.90
4566;DHT22;2295;51.050;14.608;2022-10-16T09:12:16;18.50;99.90
4566;DHT22;2295;51.050;14.608;2022-10-16T09:14:48;18.40;99.90
4566;DHT22;2295;51.050;14.608;2022-10-16T09:17:36;18.20;99.90
4566;DHT22;2295;51.050;14.608;2022-10-16T09:20:12;18.10;99.90
4566;DHT22;2295;51.050;14.608;2022-10-16T09:22:41;18.00;99.90
4566;DHT22;2295;51.050;14.608;2022-10-16T09:25:10;18.00;99.90
4566;DHT22;2295;51.050;14.608;2022-10-16T09:27:39;18.00;99.90
4566;DHT22;2295;51.050;14.608;2022-10-16T09:30:11;18.10;99.90
4566;DHT22;2295;51.050;14.608;2022-10-16T09:32:40;18.10;99.90
4566;DHT22;2295;51.050;14.608;2022-10-16T09:35:11;18.20;99.90
4566;DHT22;2295;51.050;14.608;2022-10-16T09:37:41;18.30;99.90
4566;DHT22;2295;51.050;14.608;2022-10-16T09:40:12;18.50;99.90
4566;DHT22;2295;51.050;14.608;2022-10-16T09:42:40;18.60;99.90
4566;DHT22;2295;51.050;14.608;2022-10-16T09:45:19;19.10;99.90
4566;DHT22;2295;51.050;14.608;2022-10-16T09:47:49;19.50;99.90
4566;DHT22;2295;51.050;14.608;2022-10-16T09:50:24;19.60;99.90
4566;DHT22;2295;51.050;14.608;2022-10-16T09:53:02;19.40;99.90
4566;DHT22;2295;51.050;14.608;2022-10-16T09:55:31;19.70;99.90
4566;DHT22;2295;51.050;14.608;2022-10-16T09:57:59;20.50;99.90
4566;DHT22;2295;51.050;14.608;2022-10-16T10:00:27;21.30;99.90
4566;DHT22;2295;51.050;14.608;2022-10-16T10:03:08;21.90;99.90
4566;DHT22;2295;51.050;14.608;2022-10-16T10:05:38;22.40;99.90
4566;DHT22;2295;51.050;14.608;2022-10-16T10:08:12;22.80;97.80
4566;DHT22;2295;51.050;14.608;2022-10-16T10:10:43;22.30;96.70
4566;DHT22;2295;51.050;14.608;2022-10-16T10:13:16;21.70;99.90
4566;DHT22;2295;51.050;14.608;2022-10-16T10:15:45;21.60;99.90
4566;DHT22;2295;51.050;14.608;2022-10-16T10:18:18;21.60;99.90
4566;DHT22;2295;51.050;14.608;2022-10-16T10:20:56;21.40;99.90
4566;DHT22;2295;51.050;14.608;2022-10-16T10:23:26;21.10;99.90
4566;DHT22;2295;51.050;14.608;2022-10-16T10:25:55;20.80;99.90
4566;DHT22;2295;51.050;14.608;2022-10-16T10:28:29;20.60;99.90
4566;DHT22;2295;51.050;14.608;2022-10-16T10:31:02;20.90;99.90
4566;DHT22;2295;51.050;14.608;2022-10-16T10:33:34;20.80;99.90
4566;DHT22;2295;51.050;14.608;2022-10-16T10:36:09;20.60;99.90
4566;DHT22;2295;51.050;14.608;2022-10-16T10:38:42;20.70;99.90
4566;DHT22;2295;51.050;14.608;2022-10-16T10:41:16;20.80;99.90
4566;DHT22;2295;51.050;14.608;2022-10-16T10:43:56;21.00;99.90
4566;DHT22;2295;51.050;14.608;2022-10-16T10:46:35;21.00;99.90
4566;DHT22;2295;51.050;14.608;2022-10-16T10:49:16;20.70;99.90
4566;DHT22;2295;51.050;14.608;2022-10-16T10:51:49;20.30;99.90
4566;DHT22;2295;51.050;14.608;2022-10-16T10:54:22;20.10;99.90
4566;DHT22;2295;51.050;14.608;2022-10-16T10:56:56;20.00;99.90
4566;DHT22;2295;51.050;14.608;2022-10-16T10:59:37;20.00;99.90
4566;DHT22;2295;51.050;14.608;2022-10-16T11:02:10;19.80;99.90
4566;DHT22;2295;51.050;14.608;2022-10-16T11:04:52;19.70;99.90
4566;DHT22;2295;51.050;14.608;2022-10-16T11:07:24;19.60;99.90
4566;DHT22;2295;51.050;14.608;2022-10-16T11:09:53;19.70;99.90
4566;DHT22;2295;51.050;14.608;2022-10-16T11:12:23;20.00;99.90
4566;DHT22;2295;51.050;14.608;2022-10-16T11:14:54;19.90;99.90
4566;DHT22;2295;51.050;14.608;2022-10-16T11:17:25;19.80;99.90
4566;DHT22;2295;51.050;14.608;2022-10-16T11:19:58;19.90;99.90
4566;DHT22;2295;51.050;14.608;2022-10-16T11:22:27;20.20;99.90
4566;DHT22;2295;51.050;14.608;2022-10-16T11:24:59;20.40;99.90
4566;DHT22;2295;51.050;14.608;2022-10-16T11:27:33;20.60;99.90
4566;DHT22;2295;51.050;14.608;2022-10-16T11:30:02;20.90;99.90
4566;DHT22;2295;51.050;14.608;2022-10-16T11:32:32;21.10;99.90
4566;DHT22;2295;51.050;14.608;2022-10-16T11:35:05;20.90;99.90
4566;DHT22;2295;51.050;14.608;2022-10-16T11:37:37;20.50;99.90
4566;DHT22;2295;51.050;14.608;2022-10-16T11:40:14;20.40;99.90
4566;DHT22;2295;51.050;14.608;2022-10-16T11:42:44;20.50;99.90
4566;DHT22;2295;51.050;14.608;2022-10-16T11:45:17;20.90;99.90
4566;DHT22;2295;51.050;14.608;2022-10-16T11:47:51;21.20;99.90
4566;DHT22;2295;51.050;14.608;2022-10-16T11:50:28;21.40;99.90
4566;DHT22;2295;51.050;14.608;2022-10-16T11:53:00;21.70;99.90
4566;DHT22;2295;51.050;14.608;2022-10-16T11:55:31;21.60;99.90
4566;DHT22;2295;51.050;14.608;2022-10-16T11:58:13;21.40;99.90
4566;DHT22;2295;51.050;14.608;2022-10-16T12:00:44;21.30;99.90
4566;DHT22;2295;51.050;14.608;2022-10-16T12:03:17;21.30;99.90
4566;DHT22;2295;51.050;14.608;2022-10-16T12:08:34;21.30;99.90
4566;DHT22;2295;51.050;14.608;2022-10-16T12:11:06;21.40;99.90
4566;DHT22;2295;51.050;14.608;2022-10-16T12:13:36;21.50;99.90
4566;DHT22;2295;51.050;14.608;2022-10-16T12:16:19;21.50;99.90
4566;DHT22;2295;51.050;14.608;2022-10-16T12:18:48;21.50;99.90
4566;DHT22;2295;51.050;14.608;2022-10-16T12:21:17;21.70;99.90
4566;DHT22;2295;51.050;14.608;2022-10-16T12:23:50;21.90;99.90
4566;DHT22;2295;51.050;14.608;2022-10-16T12:26:25;21.70;99.90
4566;DHT22;2295;51.050;14.608;2022-10-16T12:28:54;21.50;99.90
4566;DHT22;2295;51.050;14.608;2022-10-16T12:31:23;21.50;99.90
4566;DHT22;2295;51.050;14.608;2022-10-16T12:33:54;21.40;99.90
4566;DHT22;2295;51.050;14.608;2022-10-16T12:36:26;21.30;99.90
4566;DHT22;2295;51.050;14.608;2022-10-16T12:38:56;21.10;99.90
4566;DHT22;2295;51.050;14.608;2022-10-16T12:41:25;21.10;99.90
4566;DHT22;2295;51.050;14.608;2022-10-16T12:43:54;21.10;99.90
4566;DHT22;2295;51.050;14.608;2022-10-16T12:46:24;21.00;99.90
4566;DHT22;2295;51.050;14.608;2022-10-16T12:51:47;20.90;99.90
4566;DHT22;2295;51.050;14.608;2022-10-16T12:54:17;21.00;99.90
4566;DHT22;2295;51.050;14.608;2022-10-16T12:56:50;21.10;99.90
4566;DHT22;2295;51.050;14.608;2022-10-16T12:59:24;21.00;99.90
4566;DHT22;2295;51.050;14.608;2022-10-16T13:02:06;21.00;99.90
4566;DHT22;2295;51.050;14.608;2022-10-16T13:04:42;21.10;99.90
4566;DHT22;2295;51.050;14.608;2022-10-16T13:07:25;21.20;99.90
4566;DHT22;2295;51.050;14.608;2022-10-16T13:10:01;21.30;99.90
4566;DHT22;2295;51.050;14.608;2022-10-16T13:12:37;21.30;99.90
4566;DHT22;2295;51.050;14.608;2022-10-16T13:17:53;21.30;99.90
4566;DHT22;2295;51.050;14.608;2022-10-16T13:20:24;21.30;99.90
4566;DHT22;2295;51.050;14.608;2022-10-16T13:22:56;21.30;99.90
4566;DHT22;2295;51.050;14.608;2022-10-16T13:25:32;21.20;99.90
4566;DHT22;2295;51.050;14.608;2022-10-16T13:28:01;21.00;99.90
4566;DHT22;2295;51.050;14.608;2022-10-16T13:30:30;20.80;99.90
4566;DHT22;2295;51.050;14.608;2022-10-16T13:33:00;20.70;99.90
4566;DHT22;2295;51.050;14.608;2022-10-16T13:35:29;20.60;99.90
4566;DHT22;2295;51.050;14.608;2022-10-16T13:38:12;20.50;99.90
4566;DHT22;2295;51.050;14.608;2022-10-16T13:40:52;20.50;99.90
4566;DHT22;2295;51.050;14.608;2022-10-16T13:43:21;20.40;99.90
4566;DHT22;2295;51.050;14.608;2022-10-16T13:45:54;20.30;99.90
4566;DHT22;2295;51.050;14.608;2022-10-16T13:48:22;20.20;99.90
4566;DHT22;2295;51.050;14.608;2022-10-16T13:51:04;20.00;99.90
4566;DHT22;2295;51.050;14.608;2022-10-16T13:53:33;19.90;99.90
4566;DHT22;2295;51.050;14.608;2022-10-16T13:56:04;19.80;99.90
4566;DHT22;2295;51.050;14.608;2022-10-16T13:58:33;19.80;99.90
4566;DHT22;2295;51.050;14.608;2022-10-16T14:01:02;19.70;99.90
4566;DHT22;2295;51.050;14.608;2022-10-16T14:03:32;19.70;99.90
4566;DHT22;2295;51.050;14.608;2022-10-16T14:06:02;19.60;99.90
4566;DHT22;2295;51.050;14.608;2022-10-16T14:08:31;19.60;99.90
4566;DHT22;2295;51.050;14.608;2022-10-16T14:11:00;19.60;99.90
4566;DHT22;2295;51.050;14.608;2022-10-16T14:13:31;19.50;99.90
4566;DHT22;2295;51.050;14.608;2022-10-16T14:16:01;19.50;99.90
4566;DHT22;2295;51.050;14.608;2022-10-16T14:18:30;19.40;99.90
4566;DHT22;2295;51.050;14.608;2022-10-16T14:21:04;19.30;99.90
4566;DHT22;2295;51.050;14.608;2022-10-16T14:23:34;19.30;99.90
4566;DHT22;2295;51.050;14.608;2022-10-16T14:26:16;19.20;99.90
4566;DHT22;2295;51.050;14.608;2022-10-16T14:28:46;19.10;99.90
4566;DHT22;2295;51.050;14.608;2022-10-16T14:31:22;19.10;99.90
4566;DHT22;2295;51.050;14.608;2022-10-16T14:33:51;19.00;99.90
4566;DHT22;2295;51.050;14.608;2022-10-16T14:36:19;18.90;99.90
4566;DHT22;2295;51.050;14.608;2022-10-16T14:38:49;18.80;99.90
4566;DHT22;2295;51.050;14.608;2022-10-16T14:41:19;18.80;99.90
4566;DHT22;2295;51.050;14.608;2022-10-16T14:43:53;18.70;99.90
4566;DHT22;2295;51.050;14.608;2022-10-16T14:46:23;18.70;99.90
4566;DHT22;2295;51.050;14.608;2022-10-16T14:48:57;18.60;99.90
4566;DHT22;2295;51.050;14.608;2022-10-16T14:51:26;18.40;99.90
4566;DHT22;2295;51.050;14.608;2022-10-16T14:53:54;18.30;99.90
4566;DHT22;2295;51.050;14.608;2022-10-16T14:56:27;18.10;99.90
4566;DHT22;2295;51.050;14.608;2022-10-16T14:59:00;18.00;99.90
4566;DHT22;2295;51.050;14.608;2022-10-16T15:01:28;17.90;99.90
4566;DHT22;2295;51.050;14.608;2022-10-16T15:03:57;17.80;99.90
4566;DHT22;2295;51.050;14.608;2022-10-16T15:06:27;17.70;99.90
4566;DHT22;2295;51.050;14.608;2022-10-16T15:08:55;17.70;99.90
4566;DHT22;2295;51.050;14.608;2022-10-16T15:11:23;17.60;99.90
4566;DHT22;2295;51.050;14.608;2022-10-16T15:13:51;17.50;99.90
4566;DHT22;2295;51.050;14.608;2022-10-16T15:16:21;17.50;99.90
4566;DHT22;2295;51.050;14.608;2022-10-16T15:18:49;17.50;99.90
4566;DHT22;2295;51.050;14.608;2022-10-16T15:21:21;17.30;99.90
4566;DHT22;2295;51.050;14.608;2022-10-16T15:23:50;17.30;99.90
4566;DHT22;2295;51.050;14.608;2022-10-16T15:26:18;17.20;99.90
4566;DHT22;2295;51.050;14.608;2022-10-16T15:28:46;17.10;99.90
4566;DHT22;2295;51.050;14.608;2022-10-16T15:31:14;17.00;99.90
4566;DHT22;2295;51.050;14.608;2022-10-16T15:33:44;16.90;99.90
4566;DHT22;2295;51.050;14.608;2022-10-16T15:36:18;16.80;99.90
4566;DHT22;2295;51.050;14.608;2022-10-16T15:38:51;16.70;99.90
4566;DHT22;2295;51.050;14.608;2022-10-16T15:41:20;16.60;99.90
4566;DHT22;2295;51.050;14.608;2022-10-16T15:43:48;16.60;99.90
4566;DHT22;2295;51.050;14.608;2022-10-16T15:46:19;16.50;99.90
4566;DHT22;2295;51.050;14.608;2022-10-16T15:48:50;16.40;99.90
4566;DHT22;2295;51.050;14.608;2022-10-16T15:51:18;16.30;99.90
4566;DHT22;2295;51.050;14.608;2022-10-16T15:53:46;16.30;99.90
4566;DHT22;2295;51.050;14.608;2022-10-16T15:56:14;16.20;99.90
4566;DHT22;2295;51.050;14.608;2022-10-16T15:58:43;16.10;99.90
4566;DHT22;2295;51.050;14.608;2022-10-16T16:01:11;16.00;99.90
4566;DHT22;2295;51.050;14.608;2022-10-16T16:03:39;16.00;99.90
4566;DHT22;2295;51.050;14.608;2022-10-16T16:06:12;15.90;99.90
4566;DHT22;2295;51.050;14.608;2022-10-16T16:08:41;15.90;99.90
4566;DHT22;2295;51.050;14.608;2022-10-16T16:11:10;15.80;99.90
4566;DHT22;2295;51.050;14.608;2022-10-16T16:13:38;15.80;99.90
4566;DHT22;2295;51.050;14.608;2022-10-16T16:16:06;15.80;99.90
4566;DHT22;2295;51.050;14.608;2022-10-16T16:18:38;15.70;99.90
4566;DHT22;2295;51.050;14.608;2022-10-16T16:21:06;15.70;99.90